Time;durP1;ratioP1;P1;durP2;ratioP2;P2;SDS_P1;SDS_P2;PMS_P1;PMS_P2;Temp;Humidity;BMP_temperature;BMP_pressure;BME280_temperature;BME280_humidity;BME280_pressure;Samples;Min_cycle;Max_cycle;Signal;HPM_P1;HPM_P2
2021/01/19 00:00:12;;;;;;;36.30;22.93;;;;;;;;;;5075965;28;20231;-70
2021/01/19 00:02:37;;;;;;;39.50;22.60;;;;;;;;;;5086056;28;20181;-70
2021/01/19 00:05:03;;;;;;;36.60;23.33;;;;;;;;;;5073990;28;20276;-70
2021/01/19 00:07:28;;;;;;;35.97;20.97;;;;;;;;;;5070960;28;20202;-70
2021/01/19 00:09:54;;;;;;;38.03;22.53;;;;;;;;;;5081025;28;20659;-70
2021/01/19 00:12:20;;;;;;;39.60;23.00;;;;;;;;;;5073065;28;20176;-71
2021/01/19 00:14:45;;;;;;;35.40;21.60;;;;;;;;;;5076528;28;20193;-70
2021/01/19 00:17:11;;;;;;;36.77;22.87;;;;;;;;;;5069566;28;20701;-70
2021/01/19 00:19:37;;;;;;;37.30;22.60;;;;;;;;;;5082494;28;20211;-70
2021/01/19 00:22:02;;;;;;;35.17;21.37;;;;;;;;;;5073862;28;20180;-71
2021/01/19 00:24:27;;;;;;;37.00;22.13;;;;;;;;;;5080704;28;20196;-71
2021/01/19 00:26:53;;;;;;;42.77;22.37;;;;;;;;;;5089680;28;20290;-70
2021/01/19 00:29:18;;;;;;;34.47;21.27;;;;;;;;;;5087301;28;20191;-72
2021/01/19 00:31:43;;;;;;;40.03;22.03;;;;;;;;;;5085604;28;20646;-72
2021/01/19 00:34:09;;;;;;;33.37;20.27;;;;;;;;;;5089870;28;20176;-71
2021/01/19 00:36:34;;;;;;;38.33;21.90;;;;;;;;;;5078272;28;20295;-72
2021/01/19 00:38:59;;;;;;;39.70;21.40;;;;;;;;;;5088695;28;20223;-71
2021/01/19 00:41:25;;;;;;;32.50;20.37;;;;;;;;;;5081653;28;20613;-71
2021/01/19 00:43:50;;;;;;;36.47;21.37;;;;;;;;;;5088713;28;20184;-72
2021/01/19 00:46:15;;;;;;;33.00;20.83;;;;;;;;;;5082398;28;20242;-71
2021/01/19 00:48:42;;;;;;;29.73;20.23;;;;;;;;;;5088391;28;20539;-71
2021/01/19 00:51:07;;;;;;;30.03;20.07;;;;;;;;;;5082438;28;20196;-71
2021/01/19 00:53:32;;;;;;;36.77;21.27;;;;;;;;;;5087901;28;20188;-72
2021/01/19 00:55:58;;;;;;;35.13;20.03;;;;;;;;;;5081288;28;20179;-71
2021/01/19 00:58:23;;;;;;;30.27;19.47;;;;;;;;;;5088558;28;20230;-72
2021/01/19 01:00:48;;;;;;;29.03;19.73;;;;;;;;;;5090040;28;20188;-71
2021/01/19 01:03:14;;;;;;;29.67;19.77;;;;;;;;;;5064287;28;20222;-71
2021/01/19 01:05:40;;;;;;;27.37;20.17;;;;;;;;;;5073398;28;20218;-72
2021/01/19 01:08:06;;;;;;;29.77;19.60;;;;;;;;;;5080057;28;20631;-71
2021/01/19 01:10:31;;;;;;;33.73;19.80;;;;;;;;;;5091525;28;20238;-71
2021/01/19 01:12:57;;;;;;;31.63;19.43;;;;;;;;;;5077501;28;20190;-71
2021/01/19 01:15:34;;;;;;;31.93;20.50;;;;;;;;;;5089149;28;20184;-71
2021/01/19 01:18:00;;;;;;;33.90;20.30;;;;;;;;;;5078780;28;20214;-71
2021/01/19 01:20:25;;;;;;;30.27;20.00;;;;;;;;;;5090566;28;20222;-71
2021/01/19 01:22:52;;;;;;;29.87;19.57;;;;;;;;;;5078656;28;20552;-72
2021/01/19 01:25:17;;;;;;;33.70;21.10;;;;;;;;;;5087885;28;20651;-71
2021/01/19 01:27:44;;;;;;;33.07;20.50;;;;;;;;;;5080382;28;20216;-71
2021/01/19 01:30:11;;;;;;;34.00;19.77;;;;;;;;;;5072259;28;20241;-71
2021/01/19 01:32:41;;;;;;;29.43;19.53;;;;;;;;;;5076498;28;20732;-71
2021/01/19 01:35:08;;;;;;;27.47;17.43;;;;;;;;;;5091375;28;20192;-72
2021/01/19 01:37:34;;;;;;;27.03;17.67;;;;;;;;;;5070343;28;20578;-71
2021/01/19 01:39:59;;;;;;;30.90;16.73;;;;;;;;;;5079475;28;20198;-71
2021/01/19 01:42:25;;;;;;;26.50;17.17;;;;;;;;;;5086391;28;20521;-71
2021/01/19 01:44:52;;;;;;;29.70;15.03;;;;;;;;;;5062976;28;20271;-71
2021/01/19 01:47:28;;;;;;;29.57;15.40;;;;;;;;;;5087233;28;20212;-71
2021/01/19 01:49:54;;;;;;;22.93;14.70;;;;;;;;;;5081868;28;20218;-71
2021/01/19 01:52:21;;;;;;;23.47;13.93;;;;;;;;;;5090441;28;20176;-71
2021/01/19 01:54:49;;;;;;;28.33;13.53;;;;;;;;;;5062796;28;20553;-71
2021/01/19 01:57:15;;;;;;;21.97;11.43;;;;;;;;;;5087893;28;20184;-71
2021/01/19 01:59:40;;;;;;;26.87;12.50;;;;;;;;;;5079276;28;21287;-71
2021/01/19 02:02:07;;;;;;;23.93;11.73;;;;;;;;;;5087780;28;20215;-71
2021/01/19 02:04:32;;;;;;;23.97;10.13;;;;;;;;;;5080704;28;20196;-71
2021/01/19 02:07:02;;;;;;;19.83;9.70;;;;;;;;;;5086338;28;20215;-71
2021/01/19 02:09:33;;;;;;;17.57;8.93;;;;;;;;;;5079433;28;20258;-71
2021/01/19 02:12:04;;;;;;;17.83;8.77;;;;;;;;;;5087453;28;20176;-71
2021/01/19 02:14:36;;;;;;;22.67;9.80;;;;;;;;;;5063340;28;20176;-71
2021/01/19 02:17:41;;;;;;;24.70;8.07;;;;;;;;;;5087257;28;20204;-71
2021/01/19 02:20:31;;;;;;;15.60;7.50;;;;;;;;;;5071345;28;20291;-71
2021/01/19 02:23:20;;;;;;;16.77;7.03;;;;;;;;;;5088589;28;20172;-72
2021/01/19 02:26:40;;;;;;;17.00;7.97;;;;;;;;;;5060677;28;20278;-71
2021/01/19 02:29:14;;;;;;;18.57;6.93;;;;;;;;;;5063733;28;20526;-72
2021/01/19 02:32:04;;;;;;;20.47;6.80;;;;;;;;;;5079067;28;20278;-71
2021/01/19 02:34:44;;;;;;;18.20;6.97;;;;;;;;;;5086136;28;20271;-71
2021/01/19 02:37:20;;;;;;;17.17;5.73;;;;;;;;;;5062049;28;20549;-71
2021/01/19 02:40:01;;;;;;;20.63;5.47;;;;;;;;;;5083834;28;20180;-71
2021/01/19 02:42:33;;;;;;;19.87;5.30;;;;;;;;;;5073643;28;20183;-71
2021/01/19 02:45:03;;;;;;;17.00;5.73;;;;;;;;;;5086698;28;20196;-71
2021/01/19 02:47:29;;;;;;;14.53;5.47;;;;;;;;;;5077455;28;20253;-71
2021/01/19 02:49:54;;;;;;;14.87;5.67;;;;;;;;;;5083872;28;20179;-71
2021/01/19 02:52:19;;;;;;;14.77;4.63;;;;;;;;;;5076509;28;20191;-71
2021/01/19 02:54:45;;;;;;;15.10;5.00;;;;;;;;;;5085201;28;20176;-71
2021/01/19 02:57:47;;;;;;;16.70;4.27;;;;;;;;;;5079068;28;20225;-71
2021/01/19 03:00:18;;;;;;;13.90;3.97;;;;;;;;;;5087735;28;20212;-71
2021/01/19 03:02:47;;;;;;;13.87;4.23;;;;;;;;;;5074712;28;20187;-70
2021/01/19 03:05:14;;;;;;;15.30;3.70;;;;;;;;;;5088586;28;20188;-71
2021/01/19 03:07:43;;;;;;;13.27;3.50;;;;;;;;;;5078045;28;20213;-71
2021/01/19 03:10:12;;;;;;;13.03;3.73;;;;;;;;;;5085807;28;20172;-71
2021/01/19 03:12:40;;;;;;;14.87;3.90;;;;;;;;;;5076808;28;20188;-71
2021/01/19 03:15:06;;;;;;;14.60;4.13;;;;;;;;;;5085910;28;20255;-71
2021/01/19 03:17:32;;;;;;;11.80;3.50;;;;;;;;;;5079099;28;20670;-72
2021/01/19 03:19:57;;;;;;;16.67;3.20;;;;;;;;;;5086137;28;20184;-72
2021/01/19 03:22:22;;;;;;;14.67;3.63;;;;;;;;;;5085329;28;20200;-71
2021/01/19 03:24:48;;;;;;;10.30;2.97;;;;;;;;;;5079180;28;20259;-72
2021/01/19 03:27:13;;;;;;;11.77;3.60;;;;;;;;;;5069940;28;20218;-72
2021/01/19 03:29:38;;;;;;;14.90;3.10;;;;;;;;;;5077707;28;20188;-71
2021/01/19 03:32:04;;;;;;;6.73;2.93;;;;;;;;;;5084996;28;20188;-72
2021/01/19 03:34:30;;;;;;;12.27;2.10;;;;;;;;;;5079129;28;20180;-72
2021/01/19 03:36:55;;;;;;;8.93;2.37;;;;;;;;;;5088049;28;20666;-72
2021/01/19 03:39:21;;;;;;;10.33;2.60;;;;;;;;;;5078737;28;20230;-72
2021/01/19 03:41:46;;;;;;;8.97;2.77;;;;;;;;;;5087269;28;20245;-69
2021/01/19 03:44:12;;;;;;;6.97;2.57;;;;;;;;;;5081416;28;20186;-70
2021/01/19 03:46:37;;;;;;;8.63;2.73;;;;;;;;;;5092051;28;20184;-72
2021/01/19 03:49:03;;;;;;;13.10;2.40;;;;;;;;;;5073467;28;20196;-72
2021/01/19 03:51:28;;;;;;;10.50;2.60;;;;;;;;;;5066037;28;20544;-70
2021/01/19 03:53:54;;;;;;;9.00;2.30;;;;;;;;;;5073779;28;20195;-70
2021/01/19 03:56:20;;;;;;;9.17;2.77;;;;;;;;;;5085112;28;20643;-71
2021/01/19 03:58:46;;;;;;;13.63;3.00;;;;;;;;;;5091903;28;20175;-67
2021/01/19 04:01:11;;;;;;;7.03;2.70;;;;;;;;;;5080824;28;20592;-70
2021/01/19 04:03:37;;;;;;;9.20;2.67;;;;;;;;;;5077723;28;20202;-70
2021/01/19 04:06:06;;;;;;;7.03;2.60;;;;;;;;;;5066054;28;20204;-70
2021/01/19 04:08:33;;;;;;;10.83;3.37;;;;;;;;;;5058573;28;20192;-70
2021/01/19 04:11:00;;;;;;;12.97;3.47;;;;;;;;;;5085640;28;20184;-70
2021/01/19 04:13:25;;;;;;;11.63;3.53;;;;;;;;;;5073697;28;20267;-70
2021/01/19 04:15:51;;;;;;;12.03;3.57;;;;;;;;;;5082313;28;20607;-71
2021/01/19 04:18:16;;;;;;;13.17;3.30;;;;;;;;;;5073828;28;20172;-71
2021/01/19 04:20:41;;;;;;;18.37;3.87;;;;;;;;;;5087507;28;20241;-71
2021/01/19 04:23:07;;;;;;;11.27;3.80;;;;;;;;;;5078379;28;20592;-68
2021/01/19 04:25:32;;;;;;;12.73;3.87;;;;;;;;;;5091299;28;20655;-71
2021/01/19 04:27:59;;;;;;;14.53;4.07;;;;;;;;;;5081909;28;20203;-72
2021/01/19 04:30:24;;;;;;;13.87;4.53;;;;;;;;;;5090074;28;20195;-71
2021/01/19 04:32:50;;;;;;;11.80;4.07;;;;;;;;;;5081815;28;20180;-69
2021/01/19 04:35:16;;;;;;;16.40;4.73;;;;;;;;;;5088522;28;20651;-71
2021/01/19 04:37:42;;;;;;;13.10;4.13;;;;;;;;;;5062979;28;20247;-73
2021/01/19 04:40:08;;;;;;;21.30;5.13;;;;;;;;;;5089747;28;20200;-71
2021/01/19 04:42:35;;;;;;;13.03;4.60;;;;;;;;;;5063588;28;20279;-71
2021/01/19 04:45:06;;;;;;;14.00;5.13;;;;;;;;;;5087358;28;20192;-71
2021/01/19 04:47:33;;;;;;;17.63;5.37;;;;;;;;;;5081794;28;20621;-71
2021/01/19 04:49:59;;;;;;;10.77;4.33;;;;;;;;;;5071217;28;20647;-71
2021/01/19 04:52:27;;;;;;;12.07;4.83;;;;;;;;;;5089896;28;20191;-74
2021/01/19 04:55:03;;;;;;;10.23;4.63;;;;;;;;;;5060510;28;20181;-73
2021/01/19 04:57:33;;;;;;;16.93;5.47;;;;;;;;;;5089883;28;20164;-72
2021/01/19 05:00:15;;;;;;;17.67;5.27;;;;;;;;;;5076340;28;20213;-73
2021/01/19 05:02:49;;;;;;;14.00;5.70;;;;;;;;;;5086453;28;20647;-73
2021/01/19 05:05:21;;;;;;;13.77;5.33;;;;;;;;;;5078324;28;20235;-74
2021/01/19 05:08:12;;;;;;;12.30;5.97;;;;;;;;;;5090780;28;20196;-72
2021/01/19 05:10:39;;;;;;;13.10;5.53;;;;;;;;;;5064038;28;20196;-73
2021/01/19 05:13:12;;;;;;;17.37;5.67;;;;;;;;;;5087412;28;20192;-73
2021/01/19 05:15:48;;;;;;;15.70;6.07;;;;;;;;;;5079416;28;20194;-73
2021/01/19 05:18:17;;;;;;;13.13;6.37;;;;;;;;;;5089415;28;20226;-73
2021/01/19 05:20:47;;;;;;;12.70;5.93;;;;;;;;;;5061550;28;20191;-73
2021/01/19 05:23:22;;;;;;;14.73;6.30;;;;;;;;;;5088886;28;20597;-72
2021/01/19 05:25:57;;;;;;;14.70;6.73;;;;;;;;;;5084564;28;20787;-72
2021/01/19 05:28:30;;;;;;;12.40;6.23;;;;;;;;;;5089130;28;20212;-73
2021/01/19 05:30:56;;;;;;;15.17;6.43;;;;;;;;;;5080905;28;20206;-71
2021/01/19 05:33:21;;;;;;;14.73;6.63;;;;;;;;;;5072020;28;20188;-71
2021/01/19 05:35:47;;;;;;;12.70;6.70;;;;;;;;;;5082188;28;20192;-71
2021/01/19 05:38:12;;;;;;;13.70;6.50;;;;;;;;;;5067497;28;20220;-71
2021/01/19 05:40:44;;;;;;;20.27;6.53;;;;;;;;;;5080932;28;20180;-71
2021/01/19 05:43:13;;;;;;;14.47;6.27;;;;;;;;;;5088880;28;20184;-71
2021/01/19 05:45:52;;;;;;;12.40;6.57;;;;;;;;;;5081553;28;20627;-71
2021/01/19 05:48:17;;;;;;;11.27;7.00;;;;;;;;;;5069729;28;20330;-72
2021/01/19 05:50:43;;;;;;;14.60;6.07;;;;;;;;;;5083762;28;22529;-71
2021/01/19 05:53:15;;;;;;;13.40;6.80;;;;;;;;;;5089870;28;20513;-73
2021/01/19 05:55:42;;;;;;;14.37;6.50;;;;;;;;;;5085785;28;20255;-72
2021/01/19 05:58:15;;;;;;;14.77;6.07;;;;;;;;;;5087885;28;20198;-73
2021/01/19 06:00:42;;;;;;;12.20;6.37;;;;;;;;;;5070308;28;20279;-72
2021/01/19 06:03:17;;;;;;;13.07;6.10;;;;;;;;;;5064015;28;20184;-72
2021/01/19 06:05:44;;;;;;;15.27;6.57;;;;;;;;;;5068727;28;20295;-72
2021/01/19 06:08:10;;;;;;;12.40;6.27;;;;;;;;;;5077955;28;20572;-72
2021/01/19 06:10:37;;;;;;;13.97;6.03;;;;;;;;;;5088962;28;20184;-72
2021/01/19 06:13:02;;;;;;;9.40;6.17;;;;;;;;;;5078617;28;20245;-72
2021/01/19 06:15:29;;;;;;;10.23;5.57;;;;;;;;;;5087340;28;20191;-72
2021/01/19 06:17:55;;;;;;;11.40;5.90;;;;;;;;;;5075483;28;20184;-72
2021/01/19 06:20:21;;;;;;;10.23;6.20;;;;;;;;;;5088189;28;20245;-72
2021/01/19 06:22:46;;;;;;;11.87;5.87;;;;;;;;;;5077038;28;20210;-73
2021/01/19 06:25:13;;;;;;;11.83;5.57;;;;;;;;;;5068203;28;20669;-73
2021/01/19 06:27:39;;;;;;;10.63;6.17;;;;;;;;;;5055253;28;20299;-73
2021/01/19 06:30:10;;;;;;;9.63;5.27;;;;;;;;;;5069920;28;20603;-72
2021/01/19 06:32:35;;;;;;;11.60;5.63;;;;;;;;;;5076678;28;20176;-71
2021/01/19 06:35:16;;;;;;;9.57;5.10;;;;;;;;;;5085201;28;20647;-72
2021/01/19 06:37:43;;;;;;;7.70;5.07;;;;;;;;;;5060212;28;20245;-71
2021/01/19 06:40:14;;;;;;;11.33;5.30;;;;;;;;;;5039148;28;20192;-72
2021/01/19 06:42:40;;;;;;;11.87;5.50;;;;;;;;;;5047900;28;20212;-73
2021/01/19 06:45:10;;;;;;;6.73;4.60;;;;;;;;;;5056758;28;20592;-73
2021/01/19 06:47:41;;;;;;;10.43;4.80;;;;;;;;;;5061056;28;20196;-73
2021/01/19 06:50:08;;;;;;;7.40;5.30;;;;;;;;;;5049290;28;20666;-73
2021/01/19 06:52:41;;;;;;;6.63;4.47;;;;;;;;;;5057971;28;20547;-73
2021/01/19 06:55:23;;;;;;;7.87;5.10;;;;;;;;;;5050012;28;20184;-73
2021/01/19 06:58:10;;;;;;;8.23;4.50;;;;;;;;;;5065524;28;20195;-73
2021/01/19 07:00:38;;;;;;;7.97;4.60;;;;;;;;;;5035048;28;20222;-73
2021/01/19 07:03:17;;;;;;;7.60;4.20;;;;;;;;;;5073614;28;20211;-72
2021/01/19 07:05:49;;;;;;;8.77;4.70;;;;;;;;;;5057537;28;20200;-72
2021/01/19 07:08:20;;;;;;;6.87;4.20;;;;;;;;;;5071076;28;20216;-73
2021/01/19 07:11:35;;;;;;;10.77;5.23;;;;;;;;;;5039837;28;20575;-72
2021/01/19 07:14:15;;;;;;;6.70;4.77;;;;;;;;;;5049426;28;20193;-73
2021/01/19 07:16:52;;;;;;;7.80;4.73;;;;;;;;;;5025459;28;20180;-73
2021/01/19 07:19:40;;;;;;;8.40;4.60;;;;;;;;;;5047263;28;20188;-73
2021/01/19 07:22:12;;;;;;;7.60;4.60;;;;;;;;;;5043095;28;20243;-73
2021/01/19 07:24:42;;;;;;;7.50;4.37;;;;;;;;;;5043923;28;20200;-73
2021/01/19 07:27:13;;;;;;;7.40;4.50;;;;;;;;;;5032182;28;20300;-73
2021/01/19 07:29:39;;;;;;;7.53;4.60;;;;;;;;;;4344637;28;10000740;-73
2021/01/19 07:32:27;;;;;;;8.10;4.40;;;;;;;;;;5039340;28;20277;-73
2021/01/19 07:34:54;;;;;;;11.20;4.40;;;;;;;;;;5049557;28;20192;-73
2021/01/19 07:37:34;;;;;;;6.07;4.10;;;;;;;;;;5054626;28;20239;-73
2021/01/19 07:40:00;;;;;;;5.90;3.50;;;;;;;;;;5076872;28;20204;-73
2021/01/19 07:42:26;;;;;;;5.47;4.20;;;;;;;;;;5060622;28;20190;-72
2021/01/19 07:44:59;;;;;;;6.77;4.17;;;;;;;;;;5066414;28;20192;-74
2021/01/19 07:48:02;;;;;;;7.90;4.70;;;;;;;;;;5078183;28;20207;-73
2021/01/19 07:50:39;;;;;;;9.83;4.13;;;;;;;;;;5064849;28;20195;-72
2021/01/19 07:53:04;;;;;;;7.17;4.43;;;;;;;;;;5074139;28;20199;-73
2021/01/19 07:55:29;;;;;;;6.47;4.23;;;;;;;;;;5079698;28;20183;-72
2021/01/19 07:57:55;;;;;;;5.43;4.30;;;;;;;;;;5074364;28;20191;-73
2021/01/19 08:00:25;;;;;;;6.80;3.87;;;;;;;;;;5085975;28;20180;-73
2021/01/19 08:03:10;;;;;;;5.47;3.50;;;;;;;;;;5054184;28;20250;-72
2021/01/19 08:05:36;;;;;;;6.67;4.53;;;;;;;;;;5082411;28;20772;-73
2021/01/19 08:08:13;;;;;;;5.93;4.07;;;;;;;;;;5057197;28;20235;-73
2021/01/19 08:10:38;;;;;;;4.30;3.83;;;;;;;;;;5083074;28;20236;-73
2021/01/19 08:13:03;;;;;;;6.70;4.53;;;;;;;;;;5076342;28;20754;-73
2021/01/19 08:15:33;;;;;;;5.80;3.80;;;;;;;;;;5084032;28;20180;-72
2021/01/19 08:18:03;;;;;;;7.23;4.07;;;;;;;;;;5074906;28;20287;-72
2021/01/19 08:20:34;;;;;;;4.50;3.87;;;;;;;;;;5083775;28;20301;-72
2021/01/19 08:23:11;;;;;;;6.50;3.97;;;;;;;;;;5076131;28;20237;-72
2021/01/19 08:25:37;;;;;;;6.33;4.03;;;;;;;;;;5085402;28;20187;-73
2021/01/19 08:28:03;;;;;;;5.47;3.37;;;;;;;;;;5084269;28;20196;-73
2021/01/19 08:30:30;;;;;;;5.67;3.67;;;;;;;;;;5058370;28;20232;-73
2021/01/19 08:32:58;;;;;;;4.00;2.97;;;;;;;;;;5085937;28;20538;-72
2021/01/19 08:35:25;;;;;;;5.53;3.70;;;;;;;;;;5080141;28;20180;-72
2021/01/19 08:37:59;;;;;;;4.03;3.63;;;;;;;;;;5085173;28;20215;-73
2021/01/19 08:40:30;;;;;;;3.53;3.17;;;;;;;;;;5080085;28;20207;-72
2021/01/19 08:42:56;;;;;;;5.23;3.40;;;;;;;;;;5082884;28;20552;-70
2021/01/19 08:45:23;;;;;;;5.97;3.73;;;;;;;;;;5078988;28;20191;-72
2021/01/19 08:47:57;;;;;;;5.37;3.33;;;;;;;;;;5081093;28;20847;-72
2021/01/19 08:50:25;;;;;;;3.80;3.17;;;;;;;;;;5076949;28;20188;-71
2021/01/19 08:52:51;;;;;;;5.40;3.27;;;;;;;;;;5086082;28;20226;-71
2021/01/19 08:55:20;;;;;;;4.57;3.30;;;;;;;;;;5053213;28;20180;-73
2021/01/19 08:57:50;;;;;;;3.67;3.23;;;;;;;;;;5084156;28;20192;-71
2021/01/19 09:00:29;;;;;;;6.50;3.60;;;;;;;;;;5078270;28;20203;-72
2021/01/19 09:02:58;;;;;;;5.70;3.80;;;;;;;;;;5084369;28;20321;-72
2021/01/19 09:05:26;;;;;;;7.03;3.47;;;;;;;;;;5079966;28;20710;-71
2021/01/19 09:07:51;;;;;;;4.33;3.83;;;;;;;;;;5077499;28;20211;-71
2021/01/19 09:10:27;;;;;;;4.33;3.47;;;;;;;;;;5083201;28;20550;-72
2021/01/19 09:12:53;;;;;;;5.10;3.80;;;;;;;;;;5082757;28;21213;-72
2021/01/19 09:15:19;;;;;;;4.97;3.47;;;;;;;;;;5088126;28;20526;-72
2021/01/19 09:18:11;;;;;;;4.67;3.17;;;;;;;;;;5073287;28;20210;-74
2021/01/19 09:20:37;;;;;;;4.03;3.30;;;;;;;;;;5081721;28;20192;-73
2021/01/19 09:23:07;;;;;;;4.37;3.70;;;;;;;;;;5076312;28;20187;-73
2021/01/19 09:25:33;;;;;;;4.40;3.37;;;;;;;;;;5067709;28;21513;-73
2021/01/19 09:28:05;;;;;;;4.20;3.80;;;;;;;;;;5073812;28;20353;-73
2021/01/19 09:30:35;;;;;;;3.67;3.37;;;;;;;;;;5086750;28;20184;-71
2021/01/19 09:33:08;;;;;;;3.60;3.30;;;;;;;;;;5077232;28;20195;-72
2021/01/19 09:35:34;;;;;;;4.80;3.77;;;;;;;;;;5085332;28;20244;-72
2021/01/19 09:38:00;;;;;;;4.53;3.70;;;;;;;;;;5077719;28;20626;-73
2021/01/19 09:40:35;;;;;;;5.57;3.50;;;;;;;;;;5085847;28;20192;-73
2021/01/19 09:43:17;;;;;;;3.83;3.27;;;;;;;;;;5077429;28;20223;-74
2021/01/19 09:45:43;;;;;;;5.77;3.50;;;;;;;;;;5085245;28;20189;-73
2021/01/19 09:48:11;;;;;;;4.20;3.60;;;;;;;;;;5077902;28;20214;-71
2021/01/19 09:50:36;;;;;;;5.10;3.70;;;;;;;;;;5082019;28;20667;-72
2021/01/19 09:53:02;;;;;;;4.07;3.50;;;;;;;;;;5059771;28;20193;-71
2021/01/19 09:55:31;;;;;;;5.73;3.97;;;;;;;;;;5074274;28;20553;-72
2021/01/19 09:58:01;;;;;;;4.63;3.70;;;;;;;;;;5072291;28;20519;-72
2021/01/19 10:00:34;;;;;;;4.17;3.67;;;;;;;;;;5084580;28;20661;-72
2021/01/19 10:03:13;;;;;;;5.20;3.43;;;;;;;;;;5075723;28;20234;-72
2021/01/19 10:05:38;;;;;;;4.50;3.90;;;;;;;;;;5078373;28;20204;-71
2021/01/19 10:08:06;;;;;;;5.77;3.83;;;;;;;;;;5085771;28;20215;-73
2021/01/19 10:10:36;;;;;;;7.33;4.00;;;;;;;;;;5061583;28;20236;-73
2021/01/19 10:13:03;;;;;;;4.47;3.53;;;;;;;;;;5084211;28;20647;-73
2021/01/19 10:15:29;;;;;;;4.63;3.80;;;;;;;;;;5075501;28;20650;-73
2021/01/19 10:17:58;;;;;;;4.57;3.77;;;;;;;;;;5082346;28;20173;-72
2021/01/19 10:20:31;;;;;;;5.23;3.80;;;;;;;;;;5075543;28;20211;-73
2021/01/19 10:22:57;;;;;;;3.70;3.40;;;;;;;;;;5087946;28;20232;-73
2021/01/19 10:25:36;;;;;;;3.90;3.50;;;;;;;;;;5053659;28;20548;-73
2021/01/19 10:28:03;;;;;;;4.83;3.83;;;;;;;;;;5085599;28;20200;-73
2021/01/19 10:30:34;;;;;;;3.53;3.23;;;;;;;;;;5078871;28;20324;-72
2021/01/19 10:33:00;;;;;;;3.37;2.83;;;;;;;;;;5088213;28;20188;-73
2021/01/19 10:35:37;;;;;;;4.93;3.10;;;;;;;;;;5075026;28;20183;-73
2021/01/19 10:38:07;;;;;;;5.17;3.27;;;;;;;;;;5087817;28;20219;-73
2021/01/19 10:40:34;;;;;;;3.43;3.13;;;;;;;;;;5077066;28;20198;-74
2021/01/19 10:43:10;;;;;;;3.83;3.43;;;;;;;;;;5063687;28;20187;-72
2021/01/19 10:45:39;;;;;;;3.60;3.30;;;;;;;;;;5072211;28;20599;-71
2021/01/19 10:48:06;;;;;;;3.60;3.30;;;;;;;;;;5062905;28;20204;-72
2021/01/19 10:50:32;;;;;;;4.37;3.63;;;;;;;;;;5076445;28;20184;-71
2021/01/19 10:53:03;;;;;;;4.03;3.40;;;;;;;;;;5081169;28;20184;-71
2021/01/19 10:55:30;;;;;;;4.23;3.83;;;;;;;;;;5082399;28;20196;-71
2021/01/19 10:57:57;;;;;;;5.37;3.73;;;;;;;;;;5073694;28;20283;-71
2021/01/19 11:00:24;;;;;;;4.13;3.63;;;;;;;;;;5085116;28;20242;-71
2021/01/19 11:02:49;;;;;;;4.20;3.80;;;;;;;;;;5075918;28;20677;-71
2021/01/19 11:05:15;;;;;;;6.60;4.27;;;;;;;;;;5080518;28;20221;-71
2021/01/19 11:07:45;;;;;;;5.03;4.10;;;;;;;;;;5057015;28;20215;-70
2021/01/19 11:10:12;;;;;;;5.57;3.60;;;;;;;;;;5068342;28;20184;-70
2021/01/19 11:12:37;;;;;;;4.73;3.80;;;;;;;;;;4369888;28;10000726;-70
2021/01/19 11:15:04;;;;;;;3.90;3.53;;;;;;;;;;5078852;28;20609;-71
2021/01/19 11:17:29;;;;;;;4.97;4.10;;;;;;;;;;5074112;28;20236;-71
2021/01/19 11:19:55;;;;;;;4.80;4.10;;;;;;;;;;5083634;28;20196;-72
2021/01/19 11:22:20;;;;;;;4.20;3.80;;;;;;;;;;5075384;28;20180;-72
2021/01/19 11:24:45;;;;;;;4.93;4.43;;;;;;;;;;5064589;28;20188;-72
2021/01/19 11:27:11;;;;;;;5.07;4.20;;;;;;;;;;5079939;28;20642;-71
2021/01/19 11:29:36;;;;;;;4.73;4.23;;;;;;;;;;5064179;28;20184;-72
2021/01/19 11:32:01;;;;;;;7.30;4.73;;;;;;;;;;5078583;28;20192;-71
2021/01/19 11:34:27;;;;;;;5.50;4.53;;;;;;;;;;5069016;28;20207;-71
2021/01/19 11:36:52;;;;;;;5.33;4.77;;;;;;;;;;5081092;28;20194;-72
2021/01/19 11:39:17;;;;;;;4.93;4.40;;;;;;;;;;5072075;28;20559;-70
2021/01/19 11:41:43;;;;;;;5.70;4.97;;;;;;;;;;5081880;28;20271;-70
2021/01/19 11:44:10;;;;;;;6.00;5.00;;;;;;;;;;5071198;28;20184;-71
2021/01/19 11:46:38;;;;;;;6.00;5.40;;;;;;;;;;5061740;28;20192;-71
2021/01/19 11:49:04;;;;;;;8.10;5.53;;;;;;;;;;5069271;28;20207;-71
2021/01/19 11:51:32;;;;;;;6.63;5.80;;;;;;;;;;5083991;28;20188;-72
2021/01/19 11:53:59;;;;;;;8.30;5.67;;;;;;;;;;5072233;28;20249;-71
2021/01/19 11:56:33;;;;;;;8.47;5.90;;;;;;;;;;5066217;28;20188;-72
2021/01/19 11:58:58;;;;;;;6.83;5.70;;;;;;;;;;5083531;28;20195;-72
2021/01/19 12:01:24;;;;;;;7.13;5.63;;;;;;;;;;5076241;28;20184;-72
2021/01/19 12:03:49;;;;;;;6.93;5.87;;;;;;;;;;5084314;28;20188;-73
2021/01/19 12:06:15;;;;;;;6.60;5.90;;;;;;;;;;5079493;28;20215;-72
2021/01/19 12:08:41;;;;;;;6.93;5.67;;;;;;;;;;5067780;28;20203;-70
2021/01/19 12:11:10;;;;;;;7.43;5.37;;;;;;;;;;5080560;28;20192;-73
2021/01/19 12:13:39;;;;;;;7.23;5.63;;;;;;;;;;5068531;28;20219;-72
2021/01/19 12:16:05;;;;;;;6.67;5.40;;;;;;;;;;5075496;28;20216;-72
2021/01/19 12:18:30;;;;;;;6.27;5.57;;;;;;;;;;5069851;28;20516;-71
2021/01/19 12:20:56;;;;;;;7.37;5.33;;;;;;;;;;5078566;28;20196;-71
2021/01/19 12:23:23;;;;;;;5.97;5.17;;;;;;;;;;5086741;28;20283;-71
2021/01/19 12:25:48;;;;;;;8.17;4.93;;;;;;;;;;5081380;28;20259;-71
2021/01/19 12:28:14;;;;;;;4.60;4.00;;;;;;;;;;5087465;28;20267;-70
2021/01/19 12:30:39;;;;;;;5.40;4.20;;;;;;;;;;5089244;28;20657;-69
2021/01/19 12:33:04;;;;;;;4.70;3.50;;;;;;;;;;5076136;28;20188;-69
2021/01/19 12:35:29;;;;;;;4.23;3.50;;;;;;;;;;5067628;28;20187;-71
2021/01/19 12:37:55;;;;;;;2.93;2.73;;;;;;;;;;5078093;28;20254;-71
2021/01/19 12:40:21;;;;;;;4.37;2.77;;;;;;;;;;5095279;28;20295;-71
2021/01/19 12:42:47;;;;;;;3.50;2.40;;;;;;;;;;5068247;28;20188;-71
2021/01/19 12:45:12;;;;;;;3.27;2.73;;;;;;;;;;5082511;28;20222;-71
2021/01/19 12:47:38;;;;;;;3.10;2.70;;;;;;;;;;5073079;28;20208;-70
2021/01/19 12:50:04;;;;;;;3.43;2.33;;;;;;;;;;5088109;28;20551;-70
2021/01/19 12:52:29;;;;;;;2.90;2.63;;;;;;;;;;5079271;28;20203;-71
2021/01/19 12:54:55;;;;;;;2.73;2.53;;;;;;;;;;5083834;28;20704;-71
2021/01/19 12:57:20;;;;;;;3.00;2.47;;;;;;;;;;5079562;28;20202;-71
2021/01/19 12:59:45;;;;;;;2.90;2.60;;;;;;;;;;5086652;28;21041;-71
2021/01/19 13:02:12;;;;;;;3.70;2.23;;;;;;;;;;5090716;28;20547;-70
2021/01/19 13:04:37;;;;;;;2.70;2.50;;;;;;;;;;4360459;28;10000825;-70
2021/01/19 13:07:03;;;;;;;3.07;2.37;;;;;;;;;;5085197;28;20616;-71
2021/01/19 13:09:28;;;;;;;2.60;2.40;;;;;;;;;;5076767;28;20563;-69
2021/01/19 13:11:54;;;;;;;3.27;2.80;;;;;;;;;;5081800;28;20191;-69
2021/01/19 13:14:20;;;;;;;3.40;2.60;;;;;;;;;;5057569;28;20650;-70
2021/01/19 13:16:45;;;;;;;3.53;2.40;;;;;;;;;;5083686;28;20192;-70
2021/01/19 13:19:11;;;;;;;2.70;2.27;;;;;;;;;;5082645;28;20587;-71
2021/01/19 13:21:36;;;;;;;2.30;2.10;;;;;;;;;;5052341;28;20715;-71
2021/01/19 13:24:02;;;;;;;2.43;2.23;;;;;;;;;;5073295;28;20199;-70
2021/01/19 13:26:27;;;;;;;2.53;2.30;;;;;;;;;;5091506;28;20199;-70
2021/01/19 13:28:52;;;;;;;4.63;2.53;;;;;;;;;;5076010;28;20208;-71
2021/01/19 13:31:24;;;;;;;3.10;2.60;;;;;;;;;;5086413;28;20530;-69
2021/01/19 13:33:49;;;;;;;3.87;2.97;;;;;;;;;;5077868;28;20635;-71
2021/01/19 13:36:15;;;;;;;3.90;3.30;;;;;;;;;;5085544;28;20237;-71
2021/01/19 13:38:40;;;;;;;3.43;3.10;;;;;;;;;;5086357;28;20235;-71
2021/01/19 13:41:06;;;;;;;4.10;3.67;;;;;;;;;;5064219;28;20184;-70
2021/01/19 13:43:31;;;;;;;3.77;3.47;;;;;;;;;;5073570;28;20215;-72
2021/01/19 13:45:57;;;;;;;5.07;3.83;;;;;;;;;;5081312;28;20622;-72
2021/01/19 13:48:22;;;;;;;3.78;3.47;;;;;;;;;;5085402;28;20192;-71
2021/01/19 13:50:47;;;;;;;4.07;3.67;;;;;;;;;;5073672;28;20222;-71
2021/01/19 13:53:13;;;;;;;4.13;3.72;;;;;;;;;;5064741;28;20199;-71
2021/01/19 13:55:38;;;;;;;6.25;4.47;;;;;;;;;;5077438;28;20192;-71
2021/01/19 13:58:03;;;;;;;7.30;4.53;;;;;;;;;;5086189;28;20176;-71
2021/01/19 14:00:31;;;;;;;8.65;5.50;;;;;;;;;;5076849;28;20267;-71
2021/01/19 14:02:56;;;;;;;8.25;6.30;;;;;;;;;;5084778;28;20180;-70
2021/01/19 14:05:22;;;;;;;8.65;6.60;;;;;;;;;;5077911;28;20223;-70
2021/01/19 14:07:47;;;;;;;9.90;7.15;;;;;;;;;;5083130;28;20204;-71
2021/01/19 14:10:12;;;;;;;11.67;6.90;;;;;;;;;;5083139;28;20184;-70
2021/01/19 14:12:38;;;;;;;13.77;7.30;;;;;;;;;;5075437;28;20203;-72
2021/01/19 14:15:04;;;;;;;13.77;8.00;;;;;;;;;;5083155;28;20188;-70
2021/01/19 14:17:29;;;;;;;14.70;7.83;;;;;;;;;;5075754;28;20216;-70
2021/01/19 14:19:56;;;;;;;14.98;7.85;;;;;;;;;;5082978;28;20219;-70
2021/01/19 14:22:21;;;;;;;12.70;7.72;;;;;;;;;;5075418;28;20237;-70
2021/01/19 14:24:46;;;;;;;11.07;7.35;;;;;;;;;;5082409;28;20179;-71
2021/01/19 14:27:12;;;;;;;12.70;7.43;;;;;;;;;;5074825;28;20563;-71
2021/01/19 14:29:37;;;;;;;10.57;6.80;;;;;;;;;;5080819;28;20187;-70
2021/01/19 14:32:03;;;;;;;13.27;6.93;;;;;;;;;;5076836;28;20597;-71
2021/01/19 14:34:28;;;;;;;13.30;7.43;;;;;;;;;;5084037;28;20642;-71
2021/01/19 14:36:54;;;;;;;13.52;7.45;;;;;;;;;;5079686;28;20247;-71
2021/01/19 14:39:20;;;;;;;14.00;6.80;;;;;;;;;;5079981;28;20232;-70
2021/01/19 14:41:46;;;;;;;15.15;7.53;;;;;;;;;;5084380;28;20192;-70
2021/01/19 14:44:13;;;;;;;14.73;8.32;;;;;;;;;;5074987;28;20202;-70